createdAt,value
2018-04-22T00:03:28.195Z,69.42
2018-04-22T00:08:30.783Z,69.49
2018-04-22T00:13:33.262Z,69.81
2018-04-22T00:18:35.869Z,70.18
2018-04-22T00:23:38.459Z,70.13
2018-04-22T00:28:41.037Z,70.47
2018-04-22T00:33:43.622Z,70.63
2018-04-22T00:38:46.173Z,70.30
2018-04-22T00:43:48.657Z,70.31
2018-04-22T00:48:51.140Z,69.78
2018-04-22T00:54:05.307Z,70.20
2018-04-22T00:59:07.808Z,70.53
2018-04-22T01:04:10.335Z,70.59
2018-04-22T01:09:15.296Z,70.64
2018-04-22T01:14:17.784Z,71.04
2018-04-22T01:19:20.346Z,71.27
2018-04-22T01:24:22.898Z,71.64
2018-04-22T01:29:25.378Z,72.05
2018-04-22T01:34:27.843Z,71.95
2018-04-22T01:39:31.420Z,72.09
2018-04-22T01:44:34.299Z,72.15
2018-04-22T01:49:37.682Z,72.15
2018-04-22T01:54:40.235Z,72.44
2018-04-22T01:59:44.003Z,72.68
2018-04-22T02:04:46.477Z,73.02
2018-04-22T02:09:48.944Z,72.81
2018-04-22T02:14:51.450Z,72.91
2018-04-22T02:19:53.973Z,73.17
2018-04-22T02:24:56.659Z,73.10
2018-04-22T02:29:59.812Z,73.28
2018-04-22T02:35:02.293Z,73.20
2018-04-22T02:40:04.790Z,73.10
2018-04-22T02:45:07.362Z,73.20
2018-04-22T02:50:10.622Z,73.38
2018-04-22T02:55:13.379Z,73.42
2018-04-22T03:00:15.855Z,73.46
2018-04-22T03:05:18.325Z,73.51
2018-04-22T03:10:20.787Z,73.57
2018-04-22T03:15:23.245Z,73.59
2018-04-22T03:20:25.735Z,73.64
2018-04-22T03:25:28.232Z,73.64
2018-04-22T03:30:30.865Z,73.51
2018-04-22T03:35:33.345Z,73.43
2018-04-22T03:40:37.052Z,73.57
2018-04-22T03:45:39.726Z,73.80
2018-04-22T03:50:42.520Z,73.37
2018-04-22T03:55:45.048Z,73.24
2018-04-22T04:00:48.220Z,73.51
2018-04-22T04:05:51.714Z,73.39
2018-04-22T04:10:54.218Z,73.73
2018-04-22T04:15:56.705Z,73.22
2018-04-22T04:21:11.590Z,72.29
2018-04-22T04:31:56.049Z,70.01
2018-04-22T04:36:58.548Z,67.76
2018-04-22T04:42:01.032Z,66.98
2018-04-22T04:47:04.165Z,67.12
2018-04-22T04:52:07.079Z,65.12
2018-04-22T04:57:09.648Z,64.18
2018-04-22T05:02:12.352Z,62.90
2018-04-22T05:07:14.874Z,61.18
2018-04-22T05:12:17.372Z,51.96
2018-04-22T05:17:20.017Z,45.94
2018-04-22T05:22:22.961Z,40.96
2018-04-22T05:27:25.425Z,34.46
2018-04-22T05:32:27.942Z,30.12
2018-04-22T05:37:34.334Z,31.17
2018-04-22T05:42:36.929Z,28.87
2018-04-22T05:47:39.569Z,27.88
2018-04-22T05:52:42.090Z,26.32
2018-04-22T05:57:45.113Z,27.13
2018-04-22T06:02:47.903Z,26.89
2018-04-22T06:07:50.391Z,26.17
2018-04-22T06:12:53.385Z,26.22
2018-04-22T06:17:55.901Z,30.14
2018-04-22T06:22:58.378Z,36.01
2018-04-22T06:28:01.091Z,39.23
2018-04-22T06:33:03.558Z,43.06
2018-04-22T06:38:17.196Z,44.63
2018-04-22T12:49:10.754Z,26.62
2018-04-22T12:54:13.284Z,25.24
2018-04-22T12:59:15.932Z,25.74
2018-04-22T13:04:18.520Z,26.22
2018-04-22T13:09:21.013Z,25.21
2018-04-22T13:14:23.587Z,26.42
2018-04-22T13:19:26.062Z,25.79
2018-04-22T13:24:28.583Z,26.15
2018-04-22T13:29:31.054Z,25.43
2018-04-22T13:34:33.518Z,24.60
2018-04-22T13:39:36.075Z,26.50
2018-04-22T13:44:38.546Z,25.58
2018-04-22T13:49:41.173Z,24.63
2018-04-22T13:54:44.942Z,26.61
2018-04-22T13:59:47.487Z,27.13
2018-04-22T14:04:49.957Z,25.28
2018-04-22T14:09:52.436Z,26.96
2018-04-22T14:14:54.972Z,25.96
2018-04-22T14:19:57.525Z,25.85
2018-04-22T14:24:59.993Z,25.84
2018-04-22T14:30:02.479Z,25.26
2018-04-22T14:35:05.001Z,26.46
2018-04-22T14:40:08.512Z,26.27
2018-04-22T14:45:22.830Z,28.13
2018-04-22T14:50:25.322Z,26.44
2018-04-22T14:55:27.801Z,27.12
2018-04-22T15:00:30.403Z,28.02
2018-04-22T15:05:32.850Z,26.32
2018-04-22T15:10:35.358Z,27.02
2018-04-22T15:15:40.006Z,25.91
2018-04-22T15:20:42.671Z,26.12
2018-04-22T15:25:45.161Z,26.86
2018-04-22T15:30:47.632Z,26.73
2018-04-22T15:35:50.160Z,26.53
2018-04-22T15:40:52.617Z,27.45
2018-04-22T15:45:55.404Z,26.98
2018-04-22T15:50:57.862Z,27.93
2018-04-22T15:56:00.380Z,28.27
2018-04-22T16:01:02.852Z,29.08
2018-04-22T16:06:05.377Z,29.60
2018-04-22T16:11:09.391Z,28.08
2018-04-22T16:16:11.961Z,27.45
2018-04-22T16:21:14.687Z,29.14
2018-04-22T16:26:17.163Z,29.28
2018-04-22T16:31:19.705Z,30.21
2018-04-22T16:36:22.171Z,31.45
2018-04-22T16:41:24.705Z,31.65
2018-04-22T16:46:27.142Z,32.05
2018-04-22T16:51:29.638Z,32.46
2018-04-22T16:56:32.126Z,31.79
2018-04-22T17:01:34.611Z,32.10
2018-04-22T17:06:46.550Z,31.41
2018-04-22T17:11:50.777Z,32.58
2018-04-22T17:16:53.236Z,33.38
2018-04-22T17:21:55.713Z,32.84
2018-04-22T17:26:58.191Z,34.49
2018-04-22T17:32:00.688Z,34.53
2018-04-22T17:37:03.191Z,35.84
2018-04-22T17:42:05.795Z,37.10
2018-04-22T17:47:08.696Z,37.75
2018-04-22T17:52:11.444Z,38.67
2018-04-22T17:57:14.296Z,39.47
2018-04-22T18:02:16.853Z,40.25
2018-04-22T18:07:19.344Z,41.35
2018-04-22T18:12:21.807Z,41.85
2018-04-22T18:17:24.312Z,42.13
2018-04-22T18:22:33.731Z,42.98
2018-04-22T18:27:44.657Z,43.93
2018-04-22T18:32:48.708Z,43.75
2018-04-22T18:37:51.197Z,43.94
2018-04-22T18:42:53.757Z,43.65
2018-04-22T18:47:56.265Z,43.78
2018-04-22T18:52:58.726Z,44.59
2018-04-22T18:58:01.235Z,43.50
2018-04-22T19:03:05.476Z,43.06
2018-04-22T19:08:09.297Z,43.28
2018-04-22T19:13:11.912Z,43.10
2018-04-22T19:18:14.435Z,44.23
2018-04-22T19:23:16.937Z,44.66
2018-04-22T19:28:20.272Z,44.45
2018-04-22T19:33:22.746Z,45.08
2018-04-22T19:38:25.305Z,45.27
2018-04-22T19:43:27.782Z,45.57
2018-04-22T19:48:30.263Z,46.19
2018-04-22T19:53:32.755Z,46.52
2018-04-22T19:58:35.429Z,46.87
2018-04-22T20:03:37.915Z,47.55
2018-04-22T20:08:40.501Z,47.84
2018-04-22T20:13:43.007Z,48.16
2018-04-22T20:18:45.625Z,48.71
2018-04-22T20:23:48.139Z,49.77
2018-04-22T20:28:50.610Z,50.66
2018-04-22T20:33:53.084Z,51.00
2018-04-22T20:38:56.698Z,50.96
2018-04-22T20:44:00.620Z,51.74
2018-04-22T20:49:03.180Z,51.06
2018-04-22T20:54:05.682Z,52.10
2018-04-22T20:59:08.278Z,48.86
2018-04-22T21:04:10.848Z,45.82
2018-04-22T21:09:13.408Z,45.57
2018-04-22T21:14:15.970Z,44.59
2018-04-22T21:19:18.424Z,44.24
2018-04-22T21:24:20.921Z,43.69
2018-04-22T21:29:23.387Z,44.35
2018-04-22T21:34:25.858Z,44.99
2018-04-22T21:39:28.694Z,45.63
2018-04-22T21:44:42.887Z,45.77
2018-04-22T21:49:45.926Z,53.30
2018-04-22T21:54:48.439Z,55.51
2018-04-22T21:59:50.961Z,58.67
2018-04-22T22:04:53.413Z,60.20
2018-04-22T22:09:55.904Z,59.21
2018-04-22T22:14:58.359Z,59.65
2018-04-22T22:20:00.857Z,59.01
2018-04-22T22:25:03.326Z,61.12
2018-04-22T22:30:05.857Z,61.85
2018-04-22T22:35:08.417Z,62.21
2018-04-22T22:40:10.964Z,64.61
2018-04-22T22:45:13.514Z,65.43
2018-04-22T22:50:16.011Z,64.72
2018-04-22T22:55:18.483Z,65.25
2018-04-22T23:00:21.755Z,64.82
2018-04-22T23:05:24.251Z,66.27
2018-04-22T23:10:26.719Z,66.36
2018-04-22T23:15:29.172Z,63.00
2018-04-22T23:20:31.634Z,62.09
2018-04-22T23:25:34.185Z,61.26
2018-04-22T23:30:36.695Z,61.31
2018-04-22T23:35:39.635Z,60.26
2018-04-22T23:40:42.165Z,59.61
2018-04-22T23:45:44.729Z,60.82
2018-04-22T23:50:47.257Z,61.84
2018-04-22T23:55:49.740Z,62.05
